createdAt,value
2024-02-10T00:01:29.126Z,8.10
2024-02-10T00:03:57.796Z,9.57
2024-02-10T00:06:25.026Z,8.48
2024-02-10T00:08:52.262Z,8.05
2024-02-10T00:11:19.164Z,8.43
2024-02-10T00:13:46.195Z,7.78
2024-02-10T00:16:13.349Z,7.75
2024-02-10T00:18:42.208Z,8.90
2024-02-10T00:21:09.371Z,8.98
2024-02-10T00:23:36.392Z,7.32
2024-02-10T00:26:05.681Z,8.60
2024-02-10T00:28:36.546Z,8.93
2024-02-10T00:31:03.583Z,8.68
2024-02-10T00:33:32.094Z,8.45
2024-02-10T00:35:59.160Z,7.72
2024-02-10T00:38:28.363Z,8.13
2024-02-10T00:40:55.524Z,9.70
2024-02-10T00:43:22.796Z,8.40
2024-02-10T00:45:49.646Z,10.52
2024-02-10T00:48:17.070Z,8.52
2024-02-10T00:50:46.538Z,8.80
2024-02-10T00:53:13.439Z,8.80
2024-02-10T00:55:40.325Z,8.98
2024-02-10T00:58:07.675Z,9.65
2024-02-10T01:00:35.522Z,9.48
2024-02-10T01:03:04.013Z,9.65
2024-02-10T01:05:31.680Z,9.05
2024-02-10T01:08:01.326Z,9.25
2024-02-10T01:10:32.192Z,9.57
2024-02-10T01:13:04.691Z,10.15
2024-02-10T01:15:34.052Z,10.27
2024-02-10T01:18:05.431Z,9.95
2024-02-10T01:20:32.497Z,10.40
2024-02-10T01:23:01.097Z,9.63
2024-02-10T01:25:31.592Z,10.70
2024-02-10T01:27:59.772Z,10.88
2024-02-10T01:30:27.922Z,11.02
2024-02-10T01:32:59.640Z,10.23
2024-02-10T01:35:27.031Z,12.27
2024-02-10T01:37:54.040Z,12.00
2024-02-10T01:40:21.289Z,10.98
2024-02-10T01:42:48.342Z,12.40
2024-02-10T01:45:15.802Z,11.60
2024-02-10T01:47:47.280Z,11.65
2024-02-10T01:50:15.231Z,11.55
2024-02-10T01:52:42.688Z,10.70
2024-02-10T01:55:11.589Z,11.25
2024-02-10T01:57:39.624Z,11.00
2024-02-10T02:00:08.277Z,11.90
2024-02-10T02:02:35.403Z,12.27
2024-02-10T02:05:05.724Z,11.70
2024-02-10T02:07:33.313Z,12.80
2024-02-10T02:10:03.704Z,11.73
2024-02-10T02:12:32.766Z,12.43
2024-02-10T02:15:00.382Z,12.15
2024-02-10T02:17:27.425Z,12.77
2024-02-10T02:19:54.454Z,11.27
2024-02-10T02:22:21.572Z,12.10
2024-02-10T02:24:49.068Z,11.82
2024-02-10T02:27:16.435Z,11.57
2024-02-10T02:29:43.763Z,12.43
2024-02-10T02:32:12.112Z,13.27
2024-02-10T02:34:39.842Z,13.05
2024-02-10T02:37:08.528Z,12.90
2024-02-10T02:39:37.406Z,12.88
2024-02-10T02:42:06.911Z,12.30
2024-02-10T02:44:34.317Z,13.35
2024-02-10T02:47:06.639Z,11.77
2024-02-10T02:49:34.622Z,13.07
2024-02-10T02:52:01.916Z,12.55
2024-02-10T02:54:32.801Z,11.45
2024-02-10T02:57:01.762Z,13.90
2024-02-10T02:59:28.885Z,12.50
2024-02-10T03:01:56.320Z,13.23
2024-02-10T03:04:24.328Z,12.88
2024-02-10T03:06:52.270Z,13.15
2024-02-10T03:09:19.670Z,14.35
2024-02-10T03:11:46.614Z,12.98
2024-02-10T03:14:13.514Z,13.63
2024-02-10T03:16:41.140Z,12.85
2024-02-10T03:19:08.862Z,12.93
2024-02-10T03:21:38.422Z,13.45
2024-02-10T03:24:06.207Z,13.10
2024-02-10T03:26:38.074Z,13.50
2024-02-10T03:29:06.625Z,12.80
2024-02-10T03:31:33.878Z,14.45
2024-02-10T03:34:03.291Z,14.05
2024-02-10T03:36:32.475Z,13.40
2024-02-10T03:39:08.486Z,12.73
2024-02-10T03:41:35.601Z,15.05
2024-02-10T03:44:03.003Z,13.93
2024-02-10T03:46:31.993Z,14.32
2024-02-10T03:49:02.211Z,14.05
2024-02-10T03:51:30.452Z,13.93
2024-02-10T03:53:57.292Z,14.68
2024-02-10T03:56:25.225Z,14.60
2024-02-10T03:58:52.340Z,15.43
2024-02-10T04:01:19.327Z,14.82
2024-02-10T04:03:47.103Z,16.50
2024-02-10T04:06:17.330Z,15.63
2024-02-10T04:08:46.837Z,14.13
2024-02-10T04:11:20.760Z,14.48
2024-02-10T04:13:48.117Z,14.25
2024-02-10T04:16:15.073Z,15.55
2024-02-10T04:18:43.253Z,16.00
2024-02-10T04:21:10.858Z,16.30
2024-02-10T04:23:41.490Z,14.40
2024-02-10T04:26:08.879Z,16.25
2024-02-10T04:28:36.327Z,15.55
2024-02-10T04:31:04.704Z,14.52
2024-02-10T04:33:32.121Z,14.27
2024-02-10T04:35:59.167Z,15.10
2024-02-10T04:38:26.090Z,15.15
2024-02-10T04:40:53.187Z,15.02
2024-02-10T04:43:21.056Z,14.35
2024-02-10T04:45:50.286Z,14.30
2024-02-10T04:48:19.813Z,16.20
2024-02-10T04:50:46.940Z,16.05
2024-02-10T04:53:16.622Z,14.45
2024-02-10T04:55:43.686Z,14.15
2024-02-10T04:58:14.029Z,15.75
2024-02-10T05:00:41.536Z,14.85
2024-02-10T05:03:08.488Z,13.73
2024-02-10T05:05:35.547Z,14.43
2024-02-10T05:08:02.573Z,14.77
2024-02-10T05:10:29.539Z,16.60
2024-02-10T05:12:57.664Z,14.77
2024-02-10T05:15:26.181Z,16.48
2024-02-10T05:17:54.272Z,16.55
2024-02-10T05:20:26.575Z,17.17
2024-02-10T05:22:55.488Z,14.88
2024-02-10T05:25:24.387Z,16.63
2024-02-10T05:27:52.150Z,17.08
2024-02-10T05:30:25.840Z,15.77
2024-02-10T05:32:54.133Z,15.50
2024-02-10T05:35:22.129Z,15.25
2024-02-10T05:37:57.926Z,15.93
2024-02-10T05:40:26.839Z,15.90
2024-02-10T05:42:58.098Z,17.13
2024-02-10T05:45:24.945Z,15.90
2024-02-10T05:47:53.051Z,17.88
2024-02-10T05:50:25.165Z,17.63
2024-02-10T05:52:59.716Z,14.60
2024-02-10T05:55:28.601Z,16.38
2024-02-10T05:58:07.420Z,17.45
2024-02-10T06:00:34.717Z,16.08
2024-02-10T06:03:04.262Z,17.13
2024-02-10T06:05:31.784Z,15.70
2024-02-10T06:07:59.227Z,15.65
2024-02-10T06:10:26.450Z,15.52
2024-02-10T06:12:54.651Z,17.15
2024-02-10T06:15:22.107Z,16.15
2024-02-10T06:17:57.526Z,15.43
2024-02-10T06:20:25.578Z,16.33
2024-02-10T06:22:54.509Z,15.70
2024-02-10T06:25:29.681Z,16.42
2024-02-10T06:27:59.041Z,15.40
2024-02-10T06:30:31.881Z,14.65
2024-02-10T06:32:59.619Z,13.90
2024-02-10T06:35:27.791Z,14.95
2024-02-10T06:37:56.401Z,16.30
2024-02-10T06:40:24.514Z,16.05
2024-02-10T06:42:54.422Z,15.98
2024-02-10T06:45:29.986Z,15.85
2024-02-10T06:47:58.512Z,13.68
2024-02-10T06:50:26.502Z,16.48
2024-02-10T06:52:54.945Z,17.13
2024-02-10T06:55:24.472Z,17.33
2024-02-10T06:57:54.086Z,16.63
2024-02-10T07:00:21.421Z,17.10
2024-02-10T07:02:48.961Z,18.17
2024-02-10T07:05:20.887Z,16.90
2024-02-10T07:07:49.921Z,16.50
2024-02-10T07:10:21.551Z,17.80
2024-02-10T07:12:58.237Z,17.63
2024-02-10T07:15:31.641Z,15.68
2024-02-10T07:17:59.502Z,15.88
2024-02-10T07:20:27.222Z,16.67
2024-02-10T07:22:58.639Z,17.00
2024-02-10T07:25:30.417Z,16.90
2024-02-10T07:28:02.773Z,17.77
2024-02-10T07:30:32.201Z,15.55
2024-02-10T07:33:04.885Z,17.77
2024-02-10T07:35:33.445Z,18.80
2024-02-10T07:38:00.535Z,17.70
2024-02-10T07:40:27.498Z,17.60
2024-02-10T07:42:54.453Z,18.30
2024-02-10T07:45:23.947Z,17.45
2024-02-10T07:47:51.709Z,18.75
2024-02-10T07:50:18.748Z,17.20
2024-02-10T07:52:49.140Z,17.73
2024-02-10T07:55:17.876Z,18.55
2024-02-10T07:57:44.917Z,16.15
2024-02-10T08:00:12.193Z,18.17
2024-02-10T08:02:39.256Z,18.23
2024-02-10T08:05:06.761Z,18.08
2024-02-10T08:07:34.686Z,18.80
2024-02-10T08:10:02.550Z,17.15
2024-02-10T08:12:31.394Z,18.00
2024-02-10T08:14:59.199Z,16.80
2024-02-10T08:17:33.139Z,19.33
2024-02-10T08:20:01.270Z,17.92
2024-02-10T08:22:32.331Z,18.58
2024-02-10T08:25:00.627Z,18.48
2024-02-10T08:27:30.497Z,18.63
2024-02-10T08:29:59.774Z,20.00
2024-02-10T08:32:29.526Z,18.23
2024-02-10T08:34:56.947Z,18.48
2024-02-10T08:37:23.977Z,18.15
2024-02-10T08:39:50.824Z,19.65
2024-02-10T08:42:18.101Z,18.60
2024-02-10T08:44:48.179Z,20.15
2024-02-10T08:47:16.617Z,18.50
2024-02-10T08:49:43.921Z,20.27
2024-02-10T08:52:22.001Z,20.27
2024-02-10T08:54:49.980Z,21.13
2024-02-10T08:57:18.176Z,20.80
2024-02-10T08:59:50.367Z,21.83
2024-02-10T09:02:23.798Z,19.98
2024-02-10T09:04:52.620Z,22.98
2024-02-10T09:07:20.550Z,19.70
2024-02-10T09:09:47.677Z,21.83
2024-02-10T09:12:14.644Z,22.30
2024-02-10T09:14:42.066Z,22.33
2024-02-10T09:17:09.075Z,23.33
2024-02-10T09:19:36.820Z,23.00
2024-02-10T09:22:07.391Z,23.17
2024-02-10T09:24:36.260Z,23.10
2024-02-10T09:27:05.588Z,23.25
2024-02-10T09:29:32.652Z,24.02
2024-02-10T09:32:01.975Z,24.15
2024-02-10T09:34:30.221Z,26.02
2024-02-10T09:37:00.474Z,25.90
2024-02-10T09:39:27.743Z,25.38
2024-02-10T09:42:02.887Z,25.63
2024-02-10T09:44:31.266Z,23.67
2024-02-10T09:47:01.488Z,26.25
2024-02-10T09:49:30.037Z,26.83
2024-02-10T09:51:57.613Z,26.05
2024-02-10T09:54:24.607Z,26.95
2024-02-10T09:56:52.836Z,26.83
2024-02-10T09:59:29.972Z,24.73
2024-02-10T10:02:00.206Z,26.02
2024-02-10T10:04:28.617Z,26.95
2024-02-10T10:06:57.554Z,27.20
2024-02-10T10:09:24.646Z,26.10
2024-02-10T10:11:52.643Z,27.95
2024-02-10T10:14:21.263Z,26.17
2024-02-10T10:17:03.895Z,27.02
2024-02-10T10:19:31.514Z,25.95
2024-02-10T10:21:59.317Z,30.35
2024-02-10T10:24:28.473Z,28.48
2024-02-10T10:26:56.700Z,28.67
2024-02-10T10:29:24.192Z,27.92
2024-02-10T10:31:54.998Z,28.35
2024-02-10T10:34:24.078Z,27.75
2024-02-10T10:36:54.214Z,31.23
2024-02-10T10:39:23.628Z,27.55
2024-02-10T10:41:53.199Z,29.13
2024-02-10T10:44:22.738Z,26.67
2024-02-10T10:46:53.283Z,27.75
2024-02-10T10:49:20.550Z,27.83
2024-02-10T10:52:03.604Z,28.92
2024-02-10T10:54:35.981Z,30.35
2024-02-10T10:57:09.347Z,30.63
2024-02-10T10:59:38.523Z,29.70
2024-02-10T11:02:09.439Z,26.83
2024-02-10T11:04:36.828Z,28.38
2024-02-10T11:07:12.998Z,26.83
2024-02-10T11:09:49.779Z,29.17
2024-02-10T11:12:16.967Z,28.17
2024-02-10T11:14:54.900Z,27.00
2024-02-10T11:17:22.186Z,26.98
2024-02-10T11:20:02.802Z,26.90
2024-02-10T11:22:41.613Z,27.20
2024-02-10T11:25:16.683Z,27.50
2024-02-10T11:27:47.575Z,25.77
2024-02-10T11:30:16.673Z,25.95
2024-02-10T11:32:50.330Z,28.10
2024-02-10T11:35:17.661Z,26.45
2024-02-10T11:37:45.094Z,27.15
2024-02-10T11:40:16.989Z,28.00
2024-02-10T11:42:44.768Z,26.75
2024-02-10T11:45:12.121Z,26.75
2024-02-10T11:47:39.156Z,26.85
2024-02-10T11:50:08.007Z,27.02
2024-02-10T11:52:37.818Z,26.88
2024-02-10T11:55:05.611Z,27.38
2024-02-10T11:57:32.685Z,27.92
2024-02-10T11:59:59.985Z,26.02
2024-02-10T12:02:27.919Z,26.13
2024-02-10T12:04:55.263Z,24.98
2024-02-10T12:07:22.470Z,25.65
2024-02-10T12:09:49.468Z,27.23
2024-02-10T12:12:17.354Z,24.98
2024-02-10T12:14:45.628Z,26.67
2024-02-10T12:17:17.505Z,24.42
2024-02-10T12:19:44.656Z,25.42
2024-02-10T12:22:12.033Z,25.45
2024-02-10T12:24:44.732Z,26.38
2024-02-10T12:27:13.847Z,26.27
2024-02-10T12:29:40.965Z,26.65
2024-02-10T12:32:10.589Z,25.15
2024-02-10T12:34:37.716Z,24.65
2024-02-10T12:37:05.086Z,24.92
2024-02-10T12:39:33.219Z,26.67
2024-02-10T12:42:02.670Z,26.73
2024-02-10T12:44:29.582Z,25.33
2024-02-10T12:46:57.914Z,26.20
2024-02-10T12:49:27.149Z,24.58
2024-02-10T12:51:56.547Z,25.95
2024-02-10T12:54:29.008Z,25.77
2024-02-10T12:56:57.356Z,27.20
2024-02-10T12:59:25.235Z,24.27
2024-02-10T13:01:52.333Z,26.90
2024-02-10T13:04:22.307Z,25.08
2024-02-10T13:06:50.464Z,25.77
2024-02-10T13:09:17.423Z,25.90
2024-02-10T13:11:44.361Z,24.33
2024-02-10T13:14:12.857Z,25.70
2024-02-10T13:16:41.629Z,26.90
2024-02-10T13:19:15.331Z,26.52
2024-02-10T13:21:45.116Z,24.85
2024-02-10T13:24:12.057Z,26.25
2024-02-10T13:26:39.093Z,25.00
2024-02-10T13:29:06.140Z,25.33
2024-02-10T13:31:36.245Z,25.83
2024-02-10T13:34:11.682Z,26.85
2024-02-10T13:36:47.402Z,25.80
2024-02-10T13:39:33.356Z,25.70
2024-02-10T13:42:18.800Z,27.67
2024-02-10T13:45:04.132Z,25.02
2024-02-10T13:47:50.116Z,28.20
2024-02-10T13:50:35.798Z,25.10
2024-02-10T13:53:21.226Z,29.37
2024-02-10T13:56:06.691Z,25.83
2024-02-10T13:58:33.530Z,24.05
2024-02-10T14:01:00.541Z,26.25
2024-02-10T14:03:33.592Z,27.15
2024-02-10T14:06:09.727Z,26.40
2024-02-10T14:08:43.574Z,27.30
2024-02-10T14:11:21.452Z,24.80
2024-02-10T14:13:53.119Z,26.42
2024-02-10T14:16:29.363Z,26.33
2024-02-10T14:19:05.785Z,24.40
2024-02-10T14:21:35.832Z,26.05
2024-02-10T14:24:04.509Z,25.45
2024-02-10T14:26:43.653Z,24.83
2024-02-10T14:29:21.436Z,27.25
2024-02-10T14:31:49.583Z,26.60
2024-02-10T14:34:37.893Z,25.70
2024-02-10T14:37:25.658Z,24.13
2024-02-10T14:40:01.184Z,24.80
2024-02-10T14:42:28.615Z,25.00
2024-02-10T14:44:55.744Z,27.77
2024-02-10T14:47:22.785Z,24.90
2024-02-10T14:49:49.806Z,24.97
2024-02-10T14:52:16.751Z,24.47
2024-02-10T14:54:44.031Z,25.10
2024-02-10T14:57:10.902Z,24.92
2024-02-10T14:59:37.805Z,23.50
2024-02-10T15:02:04.982Z,23.67
2024-02-10T15:04:32.156Z,22.98
2024-02-10T15:07:02.389Z,25.50
2024-02-10T15:09:29.383Z,23.60
2024-02-10T15:11:56.260Z,22.38
2024-02-10T15:14:23.109Z,25.00
2024-02-10T15:16:50.306Z,23.77
2024-02-10T15:19:18.453Z,23.60
2024-02-10T15:21:45.356Z,24.35
2024-02-10T15:24:13.519Z,23.60
2024-02-10T15:26:42.652Z,21.90
2024-02-10T15:29:09.661Z,23.30
2024-02-10T15:31:36.617Z,24.27
2024-02-10T15:34:05.188Z,24.07
2024-02-10T15:36:37.246Z,21.15
2024-02-10T15:39:06.941Z,22.00
2024-02-10T15:41:35.244Z,22.65
2024-02-10T15:44:09.304Z,23.93
2024-02-10T15:46:38.086Z,22.03
2024-02-10T15:49:09.895Z,24.73
2024-02-10T15:51:39.328Z,22.83
2024-02-10T15:54:08.912Z,23.25
2024-02-10T15:56:43.315Z,24.67
2024-02-10T15:59:10.375Z,24.23
2024-02-10T16:01:37.401Z,23.27
2024-02-10T16:04:09.692Z,24.07
2024-02-10T16:06:40.298Z,21.98
2024-02-10T16:09:09.695Z,24.27
2024-02-10T16:11:36.791Z,23.10
2024-02-10T16:14:03.799Z,22.40
2024-02-10T16:16:32.125Z,23.90
2024-02-10T16:19:00.773Z,25.00
2024-02-10T16:21:29.276Z,24.42
2024-02-10T16:24:00.264Z,23.53
2024-02-10T16:26:27.595Z,24.60
2024-02-10T16:28:56.870Z,23.87
2024-02-10T16:31:25.828Z,22.05
2024-02-10T16:33:54.618Z,25.55
2024-02-10T16:36:25.326Z,26.00
2024-02-10T16:38:52.735Z,25.63
2024-02-10T16:41:20.944Z,24.40
2024-02-10T16:43:47.943Z,27.35
2024-02-10T16:46:18.417Z,26.63
2024-02-10T16:48:49.389Z,25.38
2024-02-10T16:51:34.690Z,26.30
2024-02-10T16:54:06.979Z,24.58
2024-02-10T16:56:39.356Z,27.57
2024-02-10T16:59:06.415Z,27.40
2024-02-10T17:01:33.570Z,24.05
2024-02-10T17:04:05.076Z,24.80
2024-02-10T17:06:37.222Z,26.97
2024-02-10T17:09:05.854Z,24.15
2024-02-10T17:11:34.906Z,25.33
2024-02-10T17:14:02.296Z,24.42
2024-02-10T17:16:29.823Z,26.75
2024-02-10T17:18:57.775Z,25.90
2024-02-10T17:21:25.399Z,24.98
2024-02-10T17:23:52.965Z,25.60
2024-02-10T17:26:20.995Z,25.80
2024-02-10T17:28:48.064Z,24.87
2024-02-10T17:31:15.470Z,26.90
2024-02-10T17:33:43.188Z,24.90
2024-02-10T17:36:17.472Z,25.50
2024-02-10T17:38:44.651Z,24.63
2024-02-10T17:41:12.474Z,26.23
2024-02-10T17:43:40.191Z,24.65
2024-02-10T17:46:07.334Z,25.98
2024-02-10T17:48:35.560Z,25.25
2024-02-10T17:51:02.729Z,23.38
2024-02-10T17:53:30.780Z,25.07
2024-02-10T17:56:01.576Z,26.85
2024-02-10T17:58:32.631Z,26.15
2024-02-10T18:01:00.921Z,25.45
2024-02-10T18:03:32.657Z,23.33
2024-02-10T18:06:01.990Z,26.80
2024-02-10T18:08:30.766Z,27.23
2024-02-10T18:10:57.844Z,25.25
2024-02-10T18:13:25.459Z,27.13
2024-02-10T18:15:52.568Z,25.45
2024-02-10T18:18:20.404Z,24.80
2024-02-10T18:20:48.170Z,24.52
2024-02-10T18:23:15.315Z,22.38
2024-02-10T18:25:45.385Z,24.40
2024-02-10T18:28:14.899Z,24.85
2024-02-10T18:30:46.327Z,23.48
2024-02-10T18:33:16.049Z,23.67
2024-02-10T18:35:44.491Z,23.65
2024-02-10T18:38:13.162Z,22.60
2024-02-10T18:40:40.678Z,23.55
2024-02-10T18:43:07.696Z,22.83
2024-02-10T18:45:35.651Z,24.08
2024-02-10T18:48:03.542Z,22.13
2024-02-10T18:50:31.296Z,22.63
2024-02-10T18:52:58.757Z,23.73
2024-02-10T18:55:26.516Z,23.43
2024-02-10T18:57:53.647Z,22.67
2024-02-10T19:00:21.117Z,22.27
2024-02-10T19:02:49.485Z,21.00
2024-02-10T19:05:17.388Z,21.33
2024-02-10T19:07:45.620Z,19.30
2024-02-10T19:10:12.730Z,19.88
2024-02-10T19:12:39.927Z,19.00
2024-02-10T19:15:11.388Z,18.85
2024-02-10T19:17:39.073Z,20.38
2024-02-10T19:20:08.030Z,19.05
2024-02-10T19:22:36.866Z,19.70
2024-02-10T19:25:08.701Z,19.63
2024-02-10T19:27:36.484Z,21.25
2024-02-10T19:30:10.641Z,20.25
2024-02-10T19:32:39.748Z,19.47
2024-02-10T19:35:13.768Z,19.92
2024-02-10T19:37:47.093Z,20.10
2024-02-10T19:40:19.461Z,19.52
2024-02-10T19:42:47.761Z,20.15
2024-02-10T19:45:16.543Z,19.80
2024-02-10T19:47:47.681Z,18.90
2024-02-10T19:50:18.741Z,18.88
2024-02-10T19:52:49.205Z,21.55
2024-02-10T19:55:20.649Z,20.90
2024-02-10T19:57:47.909Z,21.25
2024-02-10T20:00:15.168Z,19.13
2024-02-10T20:02:45.481Z,18.93
2024-02-10T20:05:18.603Z,18.33
2024-02-10T20:07:45.823Z,17.57
2024-02-10T20:10:19.869Z,19.40
2024-02-10T20:12:47.633Z,17.77
2024-02-10T20:15:18.816Z,19.30
2024-02-10T20:17:52.540Z,17.63
2024-02-10T20:20:20.675Z,19.10
2024-02-10T20:22:49.415Z,17.02
2024-02-10T20:25:16.848Z,18.30
2024-02-10T20:27:46.287Z,18.23
2024-02-10T20:30:14.554Z,17.50
2024-02-10T20:32:41.525Z,18.30
2024-02-10T20:35:11.685Z,17.55
2024-02-10T20:37:40.198Z,17.40
2024-02-10T20:40:13.321Z,16.27
2024-02-10T20:42:41.117Z,18.67
2024-02-10T20:45:08.493Z,16.85
2024-02-10T20:47:38.519Z,17.45
2024-02-10T20:50:06.597Z,17.10
2024-02-10T20:52:34.120Z,16.38
2024-02-10T20:55:01.072Z,15.32
2024-02-10T20:57:30.349Z,15.30
2024-02-10T20:59:58.650Z,14.40
2024-02-10T21:02:28.419Z,16.83
2024-02-10T21:04:55.678Z,14.95
2024-02-10T21:07:24.842Z,14.33
2024-02-10T21:09:51.834Z,14.32
2024-02-10T21:12:18.754Z,13.60
2024-02-10T21:14:45.748Z,15.43
2024-02-10T21:17:12.724Z,16.27
2024-02-10T21:19:40.042Z,15.68
2024-02-10T21:22:07.354Z,13.82
2024-02-10T21:24:34.326Z,14.73
2024-02-10T21:27:01.319Z,13.73
2024-02-10T21:29:28.207Z,15.40
2024-02-10T21:31:55.231Z,16.20
2024-02-10T21:34:22.160Z,15.43
2024-02-10T21:36:50.486Z,15.43
2024-02-10T21:39:18.763Z,14.73
2024-02-10T21:41:48.174Z,15.18
2024-02-10T21:44:18.226Z,13.95
2024-02-10T21:46:45.185Z,14.27
2024-02-10T21:49:14.481Z,14.52
2024-02-10T21:51:53.888Z,13.93
2024-02-10T21:54:25.726Z,12.07
2024-02-10T21:56:54.420Z,13.83
2024-02-10T21:59:21.362Z,13.90
2024-02-10T22:01:50.839Z,13.87
2024-02-10T22:04:17.973Z,12.83
2024-02-10T22:06:44.937Z,13.40
2024-02-10T22:09:12.054Z,12.80
2024-02-10T22:11:39.105Z,14.80
2024-02-10T22:14:08.321Z,14.43
2024-02-10T22:16:35.462Z,13.60
2024-02-10T22:19:03.433Z,13.18
2024-02-10T22:21:30.679Z,14.77
2024-02-10T22:23:58.542Z,12.90
2024-02-10T22:26:30.425Z,14.43
2024-02-10T22:28:59.026Z,13.77
2024-02-10T22:31:31.503Z,14.50
2024-02-10T22:34:00.115Z,12.20
2024-02-10T22:36:28.227Z,15.27
2024-02-10T22:38:56.959Z,13.85
2024-02-10T22:41:24.729Z,14.43
2024-02-10T22:43:51.820Z,13.98
2024-02-10T22:46:18.718Z,15.10
2024-02-10T22:48:45.706Z,13.20
2024-02-10T22:51:16.884Z,14.43
2024-02-10T22:53:43.834Z,13.60
2024-02-10T22:56:12.604Z,12.25
2024-02-10T22:58:39.929Z,13.85
2024-02-10T23:01:07.176Z,12.55
2024-02-10T23:03:34.305Z,13.27
2024-02-10T23:06:02.476Z,12.40
2024-02-10T23:08:33.075Z,13.80
2024-02-10T23:11:01.456Z,12.65
2024-02-10T23:13:28.387Z,11.82
2024-02-10T23:15:56.232Z,12.53
2024-02-10T23:18:25.658Z,12.25
2024-02-10T23:20:53.124Z,12.65
2024-02-10T23:23:28.864Z,11.13
2024-02-10T23:25:57.260Z,11.52
2024-02-10T23:28:24.295Z,10.95
2024-02-10T23:30:53.071Z,11.25
2024-02-10T23:33:21.709Z,11.90
2024-02-10T23:35:49.052Z,10.97
2024-02-10T23:38:16.542Z,10.87
2024-02-10T23:40:47.276Z,11.30
2024-02-10T23:43:14.383Z,10.98
2024-02-10T23:45:42.667Z,11.95
2024-02-10T23:48:13.327Z,10.85
2024-02-10T23:50:40.433Z,10.45
2024-02-10T23:53:11.257Z,10.27
2024-02-10T23:55:39.344Z,10.40
2024-02-10T23:58:06.431Z,11.10
